createdAt,value
2022-10-30T00:01:17.000Z,3.70
2022-10-30T00:21:17.000Z,3.60
2022-10-30T00:31:16.000Z,3.50
2022-10-30T00:41:16.000Z,5.40
2022-10-30T00:51:16.000Z,1.70
2022-10-30T01:01:16.000Z,2.20
2022-10-30T01:11:16.000Z,2.60
2022-10-30T01:21:16.000Z,2.90
2022-10-30T01:31:16.000Z,3.10
2022-10-30T01:51:15.000Z,1.90
2022-10-30T02:01:15.000Z,2.20
2022-10-30T02:11:15.000Z,2.80
2022-10-30T02:21:15.000Z,2.80
2022-10-30T02:31:15.000Z,1.90
2022-10-30T02:41:15.000Z,1.70
2022-10-30T02:51:15.000Z,2.40
2022-10-30T03:01:14.000Z,2.40
2022-10-30T03:21:14.000Z,2.30
2022-10-30T03:31:14.000Z,2.10
2022-10-30T03:41:14.000Z,2.10
2022-10-30T03:51:14.000Z,2.60
2022-10-30T04:01:14.000Z,2.00
2022-10-30T04:11:13.000Z,2.10
2022-10-30T04:21:13.000Z,2.50
2022-10-30T04:31:13.000Z,2.70
2022-10-30T04:51:13.000Z,3.20
2022-10-30T05:01:13.000Z,2.60
2022-10-30T05:11:13.000Z,1.60
2022-10-30T05:21:12.000Z,2.00
2022-10-30T05:31:12.000Z,3.10
2022-10-30T05:41:12.000Z,2.50
2022-10-30T05:51:12.000Z,2.20
2022-10-30T06:01:12.000Z,2.80
2022-10-30T06:21:12.000Z,1.60
2022-10-30T06:31:12.000Z,1.60
2022-10-30T06:31:12.000Z,1.60
2022-10-30T06:31:12.000Z,1.60
2022-10-30T06:41:11.000Z,2.00
2022-10-30T06:51:11.000Z,3.20
2022-10-30T07:01:11.000Z,2.40
2022-10-30T07:11:11.000Z,2.30
2022-10-30T07:21:11.000Z,2.60
2022-10-30T07:21:11.000Z,2.60
2022-10-30T07:31:11.000Z,1.40
2022-10-30T07:51:10.000Z,2.10
2022-10-30T08:01:10.000Z,2.10
2022-10-30T08:11:10.000Z,1.90
2022-10-30T08:21:10.000Z,2.80
2022-10-30T08:31:10.000Z,2.00
2022-10-30T08:41:10.000Z,1.50
2022-10-30T08:51:10.000Z,1.50
2022-10-30T09:01:09.000Z,2.10
2022-10-30T09:21:09.000Z,1.50
2022-10-30T09:31:09.000Z,1.80
2022-10-30T09:41:09.000Z,1.80
2022-10-30T09:51:09.000Z,1.80
2022-10-30T10:01:09.000Z,1.50
2022-10-30T10:11:09.000Z,1.90
2022-10-30T10:21:08.000Z,1.40
2022-10-30T10:31:08.000Z,1.10
2022-10-30T10:51:08.000Z,1.30
2022-10-30T11:01:08.000Z,1.30
2022-10-30T11:11:08.000Z,1.40
2022-10-30T11:21:08.000Z,1.30
2022-10-30T11:31:07.000Z,1.20
2022-10-30T11:41:07.000Z,1.50
2022-10-30T11:51:07.000Z,1.00
2022-10-30T12:01:07.000Z,1.40
2022-10-30T12:21:07.000Z,1.70
2022-10-30T12:31:07.000Z,2.10
2022-10-30T12:41:06.000Z,2.20
2022-10-30T12:51:06.000Z,0.70
2022-10-30T13:01:06.000Z,1.40
2022-10-30T13:11:06.000Z,1.20
2022-10-30T13:21:06.000Z,1.20
2022-10-30T13:31:06.000Z,1.20
2022-10-30T13:51:06.000Z,1.50
2022-10-30T14:01:05.000Z,0.80
2022-10-30T14:11:05.000Z,1.60
2022-10-30T14:21:05.000Z,1.50
2022-10-30T14:31:05.000Z,0.80
2022-10-30T14:41:05.000Z,1.00
2022-10-30T14:51:05.000Z,1.20
2022-10-30T15:01:05.000Z,1.10
2022-10-30T15:21:04.000Z,1.30
2022-10-30T15:31:04.000Z,2.70
2022-10-30T15:41:04.000Z,2.60
2022-10-30T15:51:04.000Z,2.20
2022-10-30T16:01:04.000Z,2.40
2022-10-30T16:11:04.000Z,2.50
2022-10-30T16:21:03.000Z,2.70
2022-10-30T16:31:03.000Z,2.30
2022-10-30T16:51:03.000Z,3.30
2022-10-30T17:01:03.000Z,3.90
2022-10-30T17:11:03.000Z,3.00
2022-10-30T17:21:03.000Z,3.20
2022-10-30T17:31:03.000Z,3.30
2022-10-30T17:41:02.000Z,3.90
2022-10-30T17:51:02.000Z,4.50
2022-10-30T18:01:02.000Z,6.20
2022-10-30T18:21:02.000Z,6.00
2022-10-30T18:31:02.000Z,5.70
2022-10-30T18:41:02.000Z,4.70
2022-10-30T18:51:01.000Z,6.10
2022-10-30T19:01:01.000Z,7.00
2022-10-30T19:11:01.000Z,7.10
2022-10-30T19:21:01.000Z,6.00
2022-10-30T19:31:01.000Z,5.70
2022-10-30T19:51:01.000Z,4.40
2022-10-30T20:01:00.000Z,4.50
2022-10-30T20:11:00.000Z,6.90
2022-10-30T20:21:00.000Z,6.80
2022-10-30T20:31:00.000Z,5.20
2022-10-30T20:41:00.000Z,6.40
2022-10-30T20:51:00.000Z,4.90
2022-10-30T21:01:00.000Z,5.90
2022-10-30T21:20:59.000Z,5.20
2022-10-30T21:30:59.000Z,7.10
2022-10-30T21:40:59.000Z,6.40
2022-10-30T21:50:59.000Z,5.20
2022-10-30T22:00:59.000Z,3.30
2022-10-30T22:10:59.000Z,2.50
2022-10-30T22:20:59.000Z,3.10
2022-10-30T22:30:58.000Z,3.80
2022-10-30T22:30:58.000Z,3.80
2022-10-30T22:50:58.000Z,3.10
2022-10-30T23:00:58.000Z,2.50
2022-10-30T23:10:58.000Z,3.00
2022-10-30T23:20:58.000Z,2.70
2022-10-30T23:30:58.000Z,2.20
2022-10-30T23:40:57.000Z,2.20
2022-10-30T23:50:57.000Z,2.40
